Zilair, Russia
Current Conditions -  °F | °C
As of 7:00 PM on Friday 28 Nov 2014 (Local Time) from UWOR Reporting Station
Clear Clear  
Wind Chill:   Ceiling: Unl
Heat Index: 16°   Visibility: 6mi
Dew Point: 10°   Wind: 7mph
Humidity: 79%   Direction: 170°S
Pressure: 30.65"   Gusts: NA
Location:  52.23°N, 57.44°E
Report Text: UWOR 281400Z 17003MPS CAVOK M09/M12 Q1038 25CLRD65 NOSIG RMKQFE755/1006
Loading
Personal Weather Stations






























Interactive Weather Map New forecast layout! Learn more

10-Day Weather Forecast

Advertisements
Track Severe Weather on mobile